KGUL

Gunnison

Gunnison, Texas, USA
METAR KGUL 191455Z AUTO 11014KT 2SM HZ SCT023 BKN028 OVC035 16/12 A3030 RMK A01 P0002
Observed Flight Rules
Jan-19 @ 14:55 UTC (31 minutes ago) Instrument Flight Rules
Wind Visibility Clouds Conditions
110° at 14 knots 2 miles
  • Scattered at 2,300' AGL
  • Broken at 2,800' AGL
  • Overcast at 3,500' AGL
  • Haze
Temperatures Readings Precipitation
Current 16°C / 61°F
Dewpoint 12°C / 54°F
Humidity 77%
Altimeter 30.3" Hg
Pressure 1026 hPa
Elevation 30
Current Rain 0.02
METAR KGUL 191455Z AUTO 11014KT 2SM HZ SCT023 BKN028 OVC035 16/12 A3030 RMK A01 P0002
Observed Flight Rules
Jan-19 @ 14:55 UTC
(31 minutes ago)
IFR
Wind Visibility
110° at 14 knots 2 miles
Clouds
  • Scattered at 2,300' AGL
  • Broken at 2,800' AGL
  • Overcast at 3,500' AGL
Conditions
  • Haze
Temperature Dewpoint
16°C / 61°F 12°C / 54°F
Humidity Altimeter Pressure
77% 30.3" Hg 1026 hPa
Current Rain
0.02